
<gpx xmlns="http://www.topografix.com/GPX/1/1" xmlns:gpxx="http://www.garmin.com/xmlschemas/GpxExtensions/v3" xmlns:xsi="http://www.w3.org/2001/XMLSchema-instance" version="1.1" creator="Adze - http://kobotsw.com/apps/adze" xsi:schemaLocation="http://www.topografix.com/GPX/1/1 http://www.topografix.com/GPX/1/1/gpx.xsd http://www.garmin.com/xmlschemas/GpxExtensions/v3 http://www.garmin.com/xmlschemas/GpxExtensionsv3.xsd">
    <metadata>
        <name>Untitled Document</name>
        <link href="http://www.garmin.com"></link>
        <time>2018-01-31T08:26:29.395Z</time>
    </metadata>
    <wpt lon="101.153820" lat="14.728730">
        <time>2017-02-23T01:26:14Z</time>
        <name>Baan Suan Rojjana</name>
        <sym>Lodging</sym>
        <extensions>
            <gpxx:WaypointExtension xmlns:gpxx="http://www.garmin.com/xmlschemas/GpxExtensions/v3">
                <gpxx:DisplayMode>SymbolAndName</gpxx:DisplayMode>
            </gpxx:WaypointExtension>
        </extensions>
    </wpt>
    <wpt lon="101.144033" lat="14.715963">
        <name>Water stop</name>
    </wpt>
    <trk>
        <name>Sunday</name>
        <extensions>
            <gpxx:TrackExtension xmlns:gpxx="http://www.garmin.com/xmlschemas/GpxExtensions/v3">
                <gpxx:DisplayColor>Green</gpxx:DisplayColor>
            </gpxx:TrackExtension>
        </extensions>
        <trkseg>
            <trkpt lon="101.153486" lat="14.729799">
                <ele>330.200012</ele>
                <time>2017-02-18T02:55:24Z</time>
            </trkpt>
            <trkpt lon="101.152352" lat="14.731469">
                <ele>324.599976</ele>
                <time>2017-02-18T02:55:55Z</time>
            </trkpt>
            <trkpt lon="101.152314" lat="14.731908">
                <ele>324.599976</ele>
                <time>2017-02-18T02:56:02Z</time>
            </trkpt>
            <trkpt lon="101.152541" lat="14.732340">
                <ele>324.599976</ele>
                <time>2017-02-18T02:56:10Z</time>
            </trkpt>
            <trkpt lon="101.153009" lat="14.733160">
                <ele>317.400024</ele>
                <time>2017-02-18T02:56:20Z</time>
            </trkpt>
            <trkpt lon="101.153278" lat="14.733558">
                <ele>311.400024</ele>
                <time>2017-02-18T02:56:25Z</time>
            </trkpt>
            <trkpt lon="101.153873" lat="14.733539">
                <ele>313.000000</ele>
                <time>2017-02-18T02:56:35Z</time>
            </trkpt>
            <trkpt lon="101.153911" lat="14.733696">
                <ele>317.599976</ele>
                <time>2017-02-18T02:56:40Z</time>
            </trkpt>
            <trkpt lon="101.153479" lat="14.734846">
                <ele>317.599976</ele>
                <time>2017-02-18T02:56:59Z</time>
            </trkpt>
            <trkpt lon="101.152272" lat="14.736066">
                <ele>308.000000</ele>
                <time>2017-02-18T02:57:19Z</time>
            </trkpt>
            <trkpt lon="101.151528" lat="14.736619">
                <ele>303.000000</ele>
                <time>2017-02-18T02:57:29Z</time>
            </trkpt>
            <trkpt lon="101.150794" lat="14.737615">
                <ele>300.799988</ele>
                <time>2017-02-18T02:57:44Z</time>
            </trkpt>
            <trkpt lon="101.150714" lat="14.737688">
                <ele>300.799988</ele>
                <time>2017-02-18T02:57:46Z</time>
            </trkpt>
            <trkpt lon="101.150111" lat="14.737577">
                <ele>297.599976</ele>
                <time>2017-02-18T02:57:55Z</time>
            </trkpt>
            <trkpt lon="101.149906" lat="14.737717">
                <ele>295.799988</ele>
                <time>2017-02-18T02:57:58Z</time>
            </trkpt>
            <trkpt lon="101.149643" lat="14.737839">
                <ele>293.000000</ele>
                <time>2017-02-18T02:58:02Z</time>
            </trkpt>
            <trkpt lon="101.149187" lat="14.736964">
                <ele>300.599976</ele>
                <time>2017-02-18T02:58:29Z</time>
            </trkpt>
            <trkpt lon="101.148501" lat="14.736759">
                <ele>308.799988</ele>
                <time>2017-02-18T02:58:58Z</time>
            </trkpt>
            <trkpt lon="101.148881" lat="14.736584">
                <ele>307.599976</ele>
                <time>2017-02-18T02:59:10Z</time>
            </trkpt>
            <trkpt lon="101.149062" lat="14.736307">
                <ele>306.599976</ele>
                <time>2017-02-18T02:59:16Z</time>
            </trkpt>
            <trkpt lon="101.148856" lat="14.735470">
                <ele>308.799988</ele>
                <time>2017-02-18T02:59:41Z</time>
            </trkpt>
            <trkpt lon="101.148396" lat="14.735402">
                <ele>308.799988</ele>
                <time>2017-02-18T03:00:00Z</time>
            </trkpt>
            <trkpt lon="101.148084" lat="14.735266">
                <ele>306.000000</ele>
                <time>2017-02-18T03:00:05Z</time>
            </trkpt>
            <trkpt lon="101.147915" lat="14.734852">
                <ele>304.000000</ele>
                <time>2017-02-18T03:00:12Z</time>
            </trkpt>
            <trkpt lon="101.147924" lat="14.734686">
                <ele>305.000000</ele>
                <time>2017-02-18T03:00:15Z</time>
            </trkpt>
            <trkpt lon="101.147868" lat="14.734405">
                <ele>306.200012</ele>
                <time>2017-02-18T03:00:20Z</time>
            </trkpt>
            <trkpt lon="101.147908" lat="14.734309">
                <ele>306.200012</ele>
                <time>2017-02-18T03:00:22Z</time>
            </trkpt>
            <trkpt lon="101.147994" lat="14.733714">
                <ele>308.200012</ele>
                <time>2017-02-18T03:00:33Z</time>
            </trkpt>
            <trkpt lon="101.147846" lat="14.733131">
                <ele>304.000000</ele>
                <time>2017-02-18T03:00:42Z</time>
            </trkpt>
            <trkpt lon="101.147986" lat="14.732850">
                <ele>304.000000</ele>
                <time>2017-02-18T03:00:47Z</time>
            </trkpt>
            <trkpt lon="101.147958" lat="14.732734">
                <ele>304.000000</ele>
                <time>2017-02-18T03:00:49Z</time>
            </trkpt>
            <trkpt lon="101.147551" lat="14.731991">
                <ele>302.799988</ele>
                <time>2017-02-18T03:01:02Z</time>
            </trkpt>
            <trkpt lon="101.147159" lat="14.731883">
                <ele>302.000000</ele>
                <time>2017-02-18T03:01:11Z</time>
            </trkpt>
            <trkpt lon="101.147093" lat="14.731838">
                <ele>301.200012</ele>
                <time>2017-02-18T03:01:13Z</time>
            </trkpt>
            <trkpt lon="101.146703" lat="14.731897">
                <ele>299.799988</ele>
                <time>2017-02-18T03:01:21Z</time>
            </trkpt>
            <trkpt lon="101.146466" lat="14.731296">
                <ele>294.000000</ele>
                <time>2017-02-18T03:01:32Z</time>
            </trkpt>
            <trkpt lon="101.147189" lat="14.730845">
                <ele>290.400024</ele>
                <time>2017-02-18T03:01:56Z</time>
            </trkpt>
            <trkpt lon="101.146769" lat="14.731025">
                <ele>290.400024</ele>
                <time>2017-02-18T03:02:17Z</time>
            </trkpt>
            <trkpt lon="101.146650" lat="14.731008">
                <ele>290.400024</ele>
                <time>2017-02-18T03:02:19Z</time>
            </trkpt>
            <trkpt lon="101.146513" lat="14.731001">
                <ele>290.400024</ele>
                <time>2017-02-18T03:02:21Z</time>
            </trkpt>
            <trkpt lon="101.146364" lat="14.731004">
                <ele>290.400024</ele>
                <time>2017-02-18T03:02:23Z</time>
            </trkpt>
            <trkpt lon="101.146284" lat="14.731011">
                <ele>289.799988</ele>
                <time>2017-02-18T03:02:24Z</time>
            </trkpt>
            <trkpt lon="101.146115" lat="14.731036">
                <ele>288.599976</ele>
                <time>2017-02-18T03:02:26Z</time>
            </trkpt>
            <trkpt lon="101.145315" lat="14.731279">
                <ele>285.400024</ele>
                <time>2017-02-18T03:02:36Z</time>
            </trkpt>
            <trkpt lon="101.145099" lat="14.731437">
                <ele>286.200012</ele>
                <time>2017-02-18T03:02:40Z</time>
            </trkpt>
            <trkpt lon="101.145013" lat="14.731508">
                <ele>287.200012</ele>
                <time>2017-02-18T03:02:42Z</time>
            </trkpt>
            <trkpt lon="101.144668" lat="14.731808">
                <ele>287.599976</ele>
                <time>2017-02-18T03:02:50Z</time>
            </trkpt>
            <trkpt lon="101.144000" lat="14.731371">
                <ele>285.200012</ele>
                <time>2017-02-18T03:03:05Z</time>
            </trkpt>
            <trkpt lon="101.143871" lat="14.731436">
                <ele>285.200012</ele>
                <time>2017-02-18T03:03:07Z</time>
            </trkpt>
            <trkpt lon="101.143289" lat="14.731772">
                <ele>287.200012</ele>
                <time>2017-02-18T03:03:20Z</time>
            </trkpt>
            <trkpt lon="101.143261" lat="14.731783">
                <ele>287.200012</ele>
                <time>2017-02-18T03:03:22Z</time>
            </trkpt>
            <trkpt lon="101.143255" lat="14.731785">
                <ele>287.200012</ele>
                <time>2017-02-18T03:03:24Z</time>
            </trkpt>
            <trkpt lon="101.143233" lat="14.731808">
                <ele>287.200012</ele>
                <time>2017-02-18T03:03:27Z</time>
            </trkpt>
            <trkpt lon="101.143229" lat="14.731812">
                <ele>286.799988</ele>
                <time>2017-02-18T03:03:28Z</time>
            </trkpt>
            <trkpt lon="101.142643" lat="14.732202">
                <ele>280.000000</ele>
                <time>2017-02-18T03:03:53Z</time>
            </trkpt>
            <trkpt lon="101.142340" lat="14.732010">
                <ele>276.200012</ele>
                <time>2017-02-18T03:04:02Z</time>
            </trkpt>
            <trkpt lon="101.141971" lat="14.732033">
                <ele>276.200012</ele>
                <time>2017-02-18T03:04:12Z</time>
            </trkpt>
            <trkpt lon="101.141918" lat="14.732060">
                <ele>275.799988</ele>
                <time>2017-02-18T03:04:13Z</time>
            </trkpt>
            <trkpt lon="101.141530" lat="14.732280">
                <ele>271.200012</ele>
                <time>2017-02-18T03:04:22Z</time>
            </trkpt>
            <trkpt lon="101.141066" lat="14.732840">
                <ele>257.200012</ele>
                <time>2017-02-18T03:04:36Z</time>
            </trkpt>
            <trkpt lon="101.140869" lat="14.733244">
                <ele>248.200012</ele>
                <time>2017-02-18T03:04:52Z</time>
            </trkpt>
            <trkpt lon="101.140034" lat="14.733836">
                <ele>254.799988</ele>
                <time>2017-02-18T03:06:06Z</time>
            </trkpt>
            <trkpt lon="101.139871" lat="14.734182">
                <ele>254.799988</ele>
                <time>2017-02-18T03:07:34Z</time>
            </trkpt>
            <trkpt lon="101.139762" lat="14.734292">
                <ele>254.799988</ele>
                <time>2017-02-18T03:07:38Z</time>
            </trkpt>
            <trkpt lon="101.139436" lat="14.734541">
                <ele>251.000000</ele>
                <time>2017-02-18T03:07:48Z</time>
            </trkpt>
            <trkpt lon="101.139270" lat="14.734586">
                <ele>248.000000</ele>
                <time>2017-02-18T03:07:51Z</time>
            </trkpt>
            <trkpt lon="101.138481" lat="14.734407">
                <ele>223.799988</ele>
                <time>2017-02-18T03:08:53Z</time>
            </trkpt>
            <trkpt lon="101.138429" lat="14.734373">
                <ele>222.799988</ele>
                <time>2017-02-18T03:08:55Z</time>
            </trkpt>
            <trkpt lon="101.138410" lat="14.734364">
                <ele>222.200012</ele>
                <time>2017-02-18T03:08:56Z</time>
            </trkpt>
            <trkpt lon="101.138180" lat="14.733898">
                <ele>214.000000</ele>
                <time>2017-02-18T03:24:54Z</time>
            </trkpt>
            <trkpt lon="101.137998" lat="14.733807">
                <ele>214.000000</ele>
                <time>2017-02-18T03:25:20Z</time>
            </trkpt>
            <trkpt lon="101.137372" lat="14.733738">
                <ele>211.599976</ele>
                <time>2017-02-18T03:32:45Z</time>
            </trkpt>
            <trkpt lon="101.136478" lat="14.733446">
                <ele>210.000000</ele>
                <time>2017-02-18T03:34:05Z</time>
            </trkpt>
            <trkpt lon="101.136235" lat="14.733290">
                <ele>208.000000</ele>
                <time>2017-02-18T03:47:02Z</time>
            </trkpt>
            <trkpt lon="101.136121" lat="14.733179">
                <ele>206.000000</ele>
                <time>2017-02-18T03:48:09Z</time>
            </trkpt>
            <trkpt lon="101.136084" lat="14.733248">
                <ele>206.000000</ele>
                <time>2017-02-18T03:48:11Z</time>
            </trkpt>
            <trkpt lon="101.136036" lat="14.733322">
                <ele>205.000000</ele>
                <time>2017-02-18T03:48:13Z</time>
            </trkpt>
            <trkpt lon="101.135967" lat="14.733409">
                <ele>204.000000</ele>
                <time>2017-02-18T03:48:15Z</time>
            </trkpt>
            <trkpt lon="101.135891" lat="14.733501">
                <ele>203.000000</ele>
                <time>2017-02-18T03:48:17Z</time>
            </trkpt>
            <trkpt lon="101.135785" lat="14.733642">
                <ele>201.200012</ele>
                <time>2017-02-18T03:48:20Z</time>
            </trkpt>
            <trkpt lon="101.135664" lat="14.733793">
                <ele>200.799988</ele>
                <time>2017-02-18T03:48:23Z</time>
            </trkpt>
            <trkpt lon="101.135416" lat="14.734028">
                <ele>199.200012</ele>
                <time>2017-02-18T03:48:29Z</time>
            </trkpt>
            <trkpt lon="101.134870" lat="14.734062">
                <ele>199.200012</ele>
                <time>2017-02-18T03:48:39Z</time>
            </trkpt>
            <trkpt lon="101.134735" lat="14.734058">
                <ele>198.200012</ele>
                <time>2017-02-18T03:48:41Z</time>
            </trkpt>
            <trkpt lon="101.134661" lat="14.734061">
                <ele>197.200012</ele>
                <time>2017-02-18T03:48:42Z</time>
            </trkpt>
            <trkpt lon="101.133752" lat="14.734017">
                <ele>192.200012</ele>
                <time>2017-02-18T03:49:56Z</time>
            </trkpt>
            <trkpt lon="101.133600" lat="14.734017">
                <ele>191.200012</ele>
                <time>2017-02-18T03:49:58Z</time>
            </trkpt>
            <trkpt lon="101.133359" lat="14.734004">
                <ele>189.400024</ele>
                <time>2017-02-18T03:50:01Z</time>
            </trkpt>
            <trkpt lon="101.132794" lat="14.733967">
                <ele>185.799988</ele>
                <time>2017-02-18T03:50:08Z</time>
            </trkpt>
            <trkpt lon="101.132299" lat="14.733945">
                <ele>183.200012</ele>
                <time>2017-02-18T03:50:14Z</time>
            </trkpt>
            <trkpt lon="101.131904" lat="14.733756">
                <ele>183.200012</ele>
                <time>2017-02-18T03:50:20Z</time>
            </trkpt>
            <trkpt lon="101.131831" lat="14.733421">
                <ele>185.599976</ele>
                <time>2017-02-18T03:50:36Z</time>
            </trkpt>
            <trkpt lon="101.131749" lat="14.733208">
                <ele>185.599976</ele>
                <time>2017-02-18T03:52:06Z</time>
            </trkpt>
            <trkpt lon="101.131260" lat="14.733197">
                <ele>185.599976</ele>
                <time>2017-02-18T03:52:26Z</time>
            </trkpt>
            <trkpt lon="101.131626" lat="14.732905">
                <ele>187.799988</ele>
                <time>2017-02-18T03:52:52Z</time>
            </trkpt>
            <trkpt lon="101.131635" lat="14.732486">
                <ele>187.799988</ele>
                <time>2017-02-18T03:56:01Z</time>
            </trkpt>
            <trkpt lon="101.131426" lat="14.732147">
                <ele>187.799988</ele>
                <time>2017-02-18T03:56:22Z</time>
            </trkpt>
            <trkpt lon="101.130510" lat="14.732134">
                <ele>198.200012</ele>
                <time>2017-02-18T04:18:48Z</time>
            </trkpt>
            <trkpt lon="101.130132" lat="14.732248">
                <ele>201.799988</ele>
                <time>2017-02-18T04:19:21Z</time>
            </trkpt>
            <trkpt lon="101.130065" lat="14.732315">
                <ele>206.400024</ele>
                <time>2017-02-18T04:35:21Z</time>
            </trkpt>
            <trkpt lon="101.130029" lat="14.732344">
                <ele>206.400024</ele>
                <time>2017-02-18T04:35:31Z</time>
            </trkpt>
            <trkpt lon="101.129985" lat="14.732426">
                <ele>206.400024</ele>
                <time>2017-02-18T04:35:38Z</time>
            </trkpt>
            <trkpt lon="101.130011" lat="14.732618">
                <ele>208.799988</ele>
                <time>2017-02-18T04:35:50Z</time>
            </trkpt>
            <trkpt lon="101.130101" lat="14.732719">
                <ele>211.000000</ele>
                <time>2017-02-18T04:35:59Z</time>
            </trkpt>
            <trkpt lon="101.130268" lat="14.732807">
                <ele>216.799988</ele>
                <time>2017-02-18T04:42:35Z</time>
            </trkpt>
            <trkpt lon="101.130571" lat="14.732715">
                <ele>223.200012</ele>
                <time>2017-02-18T04:44:22Z</time>
            </trkpt>
            <trkpt lon="101.130341" lat="14.732608">
                <ele>223.200012</ele>
                <time>2017-02-18T04:44:59Z</time>
            </trkpt>
            <trkpt lon="101.130654" lat="14.732459">
                <ele>220.200012</ele>
                <time>2017-02-18T04:45:43Z</time>
            </trkpt>
            <trkpt lon="101.131119" lat="14.732511">
                <ele>214.599976</ele>
                <time>2017-02-18T04:58:15Z</time>
            </trkpt>
            <trkpt lon="101.131020" lat="14.732663">
                <ele>212.400024</ele>
                <time>2017-02-18T04:58:22Z</time>
            </trkpt>
            <trkpt lon="101.130977" lat="14.732729">
                <ele>212.400024</ele>
                <time>2017-02-18T04:58:24Z</time>
            </trkpt>
            <trkpt lon="101.130844" lat="14.732913">
                <ele>211.000000</ele>
                <time>2017-02-18T04:58:30Z</time>
            </trkpt>
            <trkpt lon="101.130679" lat="14.732978">
                <ele>208.000000</ele>
                <time>2017-02-18T04:58:49Z</time>
            </trkpt>
            <trkpt lon="101.130314" lat="14.733005">
                <ele>205.400024</ele>
                <time>2017-02-18T04:59:12Z</time>
            </trkpt>
            <trkpt lon="101.130148" lat="14.732963">
                <ele>203.599976</ele>
                <time>2017-02-18T04:59:21Z</time>
            </trkpt>
            <trkpt lon="101.129748" lat="14.732839">
                <ele>194.599976</ele>
                <time>2017-02-18T05:00:05Z</time>
            </trkpt>
            <trkpt lon="101.129425" lat="14.732143">
                <ele>180.400024</ele>
                <time>2017-02-18T05:27:02Z</time>
            </trkpt>
            <trkpt lon="101.129468" lat="14.731954">
                <ele>180.400024</ele>
                <time>2017-02-18T05:27:17Z</time>
            </trkpt>
            <trkpt lon="101.129498" lat="14.731773">
                <ele>180.400024</ele>
                <time>2017-02-18T05:27:21Z</time>
            </trkpt>
            <trkpt lon="101.129542" lat="14.731687">
                <ele>180.000000</ele>
                <time>2017-02-18T05:27:23Z</time>
            </trkpt>
            <trkpt lon="101.129589" lat="14.731577">
                <ele>179.200012</ele>
                <time>2017-02-18T05:27:25Z</time>
            </trkpt>
            <trkpt lon="101.129692" lat="14.731394">
                <ele>178.200012</ele>
                <time>2017-02-18T05:27:28Z</time>
            </trkpt>
            <trkpt lon="101.129767" lat="14.731262">
                <ele>177.799988</ele>
                <time>2017-02-18T05:27:30Z</time>
            </trkpt>
            <trkpt lon="101.129826" lat="14.731120">
                <ele>177.000000</ele>
                <time>2017-02-18T05:27:32Z</time>
            </trkpt>
            <trkpt lon="101.130038" lat="14.730633">
                <ele>176.200012</ele>
                <time>2017-02-18T05:27:39Z</time>
            </trkpt>
            <trkpt lon="101.130182" lat="14.730329">
                <ele>176.200012</ele>
                <time>2017-02-18T05:27:43Z</time>
            </trkpt>
            <trkpt lon="101.130979" lat="14.729542">
                <ele>173.799988</ele>
                <time>2017-02-18T05:27:59Z</time>
            </trkpt>
            <trkpt lon="101.131449" lat="14.729517">
                <ele>178.200012</ele>
                <time>2017-02-18T05:30:37Z</time>
            </trkpt>
            <trkpt lon="101.132185" lat="14.728720">
                <ele>177.400024</ele>
                <time>2017-02-18T05:50:42Z</time>
            </trkpt>
            <trkpt lon="101.133346" lat="14.728654">
                <ele>177.200012</ele>
                <time>2017-02-18T05:55:00Z</time>
            </trkpt>
            <trkpt lon="101.133667" lat="14.728230">
                <ele>174.599976</ele>
                <time>2017-02-18T05:55:08Z</time>
            </trkpt>
            <trkpt lon="101.134418" lat="14.728760">
                <ele>181.000000</ele>
                <time>2017-02-18T05:55:37Z</time>
            </trkpt>
            <trkpt lon="101.134937" lat="14.728713">
                <ele>185.200012</ele>
                <time>2017-02-18T05:55:56Z</time>
            </trkpt>
            <trkpt lon="101.135632" lat="14.728496">
                <ele>185.200012</ele>
                <time>2017-02-18T05:56:17Z</time>
            </trkpt>
            <trkpt lon="101.137362" lat="14.727049">
                <ele>189.400024</ele>
                <time>2017-02-18T05:57:20Z</time>
            </trkpt>
            <trkpt lon="101.137839" lat="14.726490">
                <ele>189.400024</ele>
                <time>2017-02-18T05:57:41Z</time>
            </trkpt>
            <trkpt lon="101.137926" lat="14.726391">
                <ele>189.400024</ele>
                <time>2017-02-18T05:57:46Z</time>
            </trkpt>
            <trkpt lon="101.137982" lat="14.726336">
                <ele>189.799988</ele>
                <time>2017-02-18T05:57:49Z</time>
            </trkpt>
            <trkpt lon="101.138052" lat="14.726268">
                <ele>191.599976</ele>
                <time>2017-02-18T05:57:53Z</time>
            </trkpt>
            <trkpt lon="101.138111" lat="14.726220">
                <ele>191.599976</ele>
                <time>2017-02-18T05:57:56Z</time>
            </trkpt>
            <trkpt lon="101.138216" lat="14.726135">
                <ele>193.400024</ele>
                <time>2017-02-18T05:58:02Z</time>
            </trkpt>
            <trkpt lon="101.138458" lat="14.725975">
                <ele>195.000000</ele>
                <time>2017-02-18T05:58:16Z</time>
            </trkpt>
            <trkpt lon="101.138528" lat="14.725937">
                <ele>198.200012</ele>
                <time>2017-02-18T05:58:20Z</time>
            </trkpt>
            <trkpt lon="101.139237" lat="14.725506">
                <ele>198.200012</ele>
                <time>2017-02-18T05:58:51Z</time>
            </trkpt>
            <trkpt lon="101.139377" lat="14.725068">
                <ele>202.400024</ele>
                <time>2017-02-18T05:59:16Z</time>
            </trkpt>
            <trkpt lon="101.139642" lat="14.724918">
                <ele>208.799988</ele>
                <time>2017-02-18T05:59:57Z</time>
            </trkpt>
            <trkpt lon="101.139888" lat="14.724660">
                <ele>211.200012</ele>
                <time>2017-02-18T06:00:27Z</time>
            </trkpt>
            <trkpt lon="101.139980" lat="14.724347">
                <ele>217.000000</ele>
                <time>2017-02-18T06:01:07Z</time>
            </trkpt>
            <trkpt lon="101.140882" lat="14.722447">
                <ele>236.200012</ele>
                <time>2017-02-18T06:03:10Z</time>
            </trkpt>
            <trkpt lon="101.140538" lat="14.720631">
                <ele>252.799988</ele>
                <time>2017-02-18T06:05:36Z</time>
            </trkpt>
            <trkpt lon="101.140912" lat="14.718299">
                <ele>277.000000</ele>
                <time>2017-02-18T06:08:34Z</time>
            </trkpt>
            <trkpt lon="101.142264" lat="14.714930">
                <ele>286.000000</ele>
                <time>2017-02-18T06:10:43Z</time>
            </trkpt>
            <trkpt lon="101.142663" lat="14.714962">
                <ele>287.200012</ele>
                <time>2017-02-18T06:10:56Z</time>
            </trkpt>
            <trkpt lon="101.143285" lat="14.715294">
                <ele>292.400024</ele>
                <time>2017-02-18T06:11:24Z</time>
            </trkpt>
            <trkpt lon="101.144012" lat="14.715918">
                <ele>299.000000</ele>
                <time>2017-02-18T06:19:17Z</time>
            </trkpt>
            <trkpt lon="101.143263" lat="14.715273">
                <ele>297.400024</ele>
                <time>2017-02-18T06:19:59Z</time>
            </trkpt>
            <trkpt lon="101.143160" lat="14.715215">
                <ele>296.000000</ele>
                <time>2017-02-18T06:20:01Z</time>
            </trkpt>
            <trkpt lon="101.142914" lat="14.715044">
                <ele>294.200012</ele>
                <time>2017-02-18T06:20:07Z</time>
            </trkpt>
            <trkpt lon="101.142903" lat="14.714823">
                <ele>292.799988</ele>
                <time>2017-02-18T06:20:20Z</time>
            </trkpt>
            <trkpt lon="101.143015" lat="14.714791">
                <ele>292.799988</ele>
                <time>2017-02-18T06:21:23Z</time>
            </trkpt>
            <trkpt lon="101.143237" lat="14.714781">
                <ele>290.799988</ele>
                <time>2017-02-18T06:21:30Z</time>
            </trkpt>
            <trkpt lon="101.143381" lat="14.714690">
                <ele>290.799988</ele>
                <time>2017-02-18T06:21:36Z</time>
            </trkpt>
            <trkpt lon="101.143364" lat="14.714651">
                <ele>290.400024</ele>
                <time>2017-02-18T06:21:37Z</time>
            </trkpt>
            <trkpt lon="101.143318" lat="14.714563">
                <ele>288.799988</ele>
                <time>2017-02-18T06:21:39Z</time>
            </trkpt>
            <trkpt lon="101.143276" lat="14.714431">
                <ele>287.799988</ele>
                <time>2017-02-18T06:21:41Z</time>
            </trkpt>
            <trkpt lon="101.143147" lat="14.713931">
                <ele>283.599976</ele>
                <time>2017-02-18T06:21:48Z</time>
            </trkpt>
            <trkpt lon="101.143106" lat="14.713768">
                <ele>282.799988</ele>
                <time>2017-02-18T06:21:50Z</time>
            </trkpt>
            <trkpt lon="101.143136" lat="14.713331">
                <ele>279.400024</ele>
                <time>2017-02-18T06:21:57Z</time>
            </trkpt>
            <trkpt lon="101.143842" lat="14.713184">
                <ele>282.200012</ele>
                <time>2017-02-18T06:22:15Z</time>
            </trkpt>
            <trkpt lon="101.143808" lat="14.713015">
                <ele>283.799988</ele>
                <time>2017-02-18T06:22:28Z</time>
            </trkpt>
            <trkpt lon="101.143658" lat="14.713058">
                <ele>285.000000</ele>
                <time>2017-02-18T06:22:36Z</time>
            </trkpt>
            <trkpt lon="101.143598" lat="14.713095">
                <ele>285.799988</ele>
                <time>2017-02-18T06:22:38Z</time>
            </trkpt>
            <trkpt lon="101.143242" lat="14.713205">
                <ele>281.799988</ele>
                <time>2017-02-18T06:22:44Z</time>
            </trkpt>
            <trkpt lon="101.143103" lat="14.713143">
                <ele>276.599976</ele>
                <time>2017-02-18T06:22:48Z</time>
            </trkpt>
            <trkpt lon="101.143334" lat="14.712557">
                <ele>272.000000</ele>
                <time>2017-02-18T06:23:02Z</time>
            </trkpt>
            <trkpt lon="101.144071" lat="14.712104">
                <ele>266.599976</ele>
                <time>2017-02-18T06:23:17Z</time>
            </trkpt>
            <trkpt lon="101.144401" lat="14.712053">
                <ele>262.400024</ele>
                <time>2017-02-18T06:23:23Z</time>
            </trkpt>
            <trkpt lon="101.144574" lat="14.711962">
                <ele>260.000000</ele>
                <time>2017-02-18T06:23:27Z</time>
            </trkpt>
            <trkpt lon="101.145122" lat="14.711466">
                <ele>253.200012</ele>
                <time>2017-02-18T06:23:39Z</time>
            </trkpt>
            <trkpt lon="101.145365" lat="14.711484">
                <ele>252.200012</ele>
                <time>2017-02-18T06:23:44Z</time>
            </trkpt>
            <trkpt lon="101.145583" lat="14.712001">
                <ele>253.000000</ele>
                <time>2017-02-18T06:23:59Z</time>
            </trkpt>
            <trkpt lon="101.146528" lat="14.712196">
                <ele>261.799988</ele>
                <time>2017-02-18T06:24:42Z</time>
            </trkpt>
            <trkpt lon="101.148270" lat="14.711145">
                <ele>283.000000</ele>
                <time>2017-02-18T06:28:01Z</time>
            </trkpt>
            <trkpt lon="101.148610" lat="14.710797">
                <ele>294.599976</ele>
                <time>2017-02-18T06:29:53Z</time>
            </trkpt>
            <trkpt lon="101.148648" lat="14.710766">
                <ele>294.599976</ele>
                <time>2017-02-18T06:30:03Z</time>
            </trkpt>
            <trkpt lon="101.148910" lat="14.710708">
                <ele>299.000000</ele>
                <time>2017-02-18T06:32:42Z</time>
            </trkpt>
            <trkpt lon="101.149095" lat="14.710676">
                <ele>299.000000</ele>
                <time>2017-02-18T06:33:44Z</time>
            </trkpt>
            <trkpt lon="101.149594" lat="14.710508">
                <ele>303.200012</ele>
                <time>2017-02-18T06:34:10Z</time>
            </trkpt>
            <trkpt lon="101.149664" lat="14.710425">
                <ele>304.400024</ele>
                <time>2017-02-18T06:34:15Z</time>
            </trkpt>
            <trkpt lon="101.149696" lat="14.710384">
                <ele>305.200012</ele>
                <time>2017-02-18T06:34:17Z</time>
            </trkpt>
            <trkpt lon="101.149851" lat="14.710185">
                <ele>305.200012</ele>
                <time>2017-02-18T06:34:26Z</time>
            </trkpt>
            <trkpt lon="101.150207" lat="14.710061">
                <ele>306.400024</ele>
                <time>2017-02-18T06:34:41Z</time>
            </trkpt>
            <trkpt lon="101.150865" lat="14.710052">
                <ele>309.799988</ele>
                <time>2017-02-18T06:35:07Z</time>
            </trkpt>
            <trkpt lon="101.151166" lat="14.710081">
                <ele>309.799988</ele>
                <time>2017-02-18T06:35:16Z</time>
            </trkpt>
            <trkpt lon="101.151221" lat="14.710209">
                <ele>309.799988</ele>
                <time>2017-02-18T06:35:20Z</time>
            </trkpt>
            <trkpt lon="101.151402" lat="14.710426">
                <ele>307.599976</ele>
                <time>2017-02-18T06:35:27Z</time>
            </trkpt>
            <trkpt lon="101.151439" lat="14.710538">
                <ele>306.599976</ele>
                <time>2017-02-18T06:35:29Z</time>
            </trkpt>
            <trkpt lon="101.150836" lat="14.711446">
                <ele>304.000000</ele>
                <time>2017-02-18T06:35:49Z</time>
            </trkpt>
            <trkpt lon="101.150777" lat="14.711997">
                <ele>301.000000</ele>
                <time>2017-02-18T06:35:59Z</time>
            </trkpt>
            <trkpt lon="101.150843" lat="14.712150">
                <ele>301.000000</ele>
                <time>2017-02-18T06:36:03Z</time>
            </trkpt>
            <trkpt lon="101.150864" lat="14.712438">
                <ele>301.000000</ele>
                <time>2017-02-18T06:36:09Z</time>
            </trkpt>
            <trkpt lon="101.150668" lat="14.712514">
                <ele>298.400024</ele>
                <time>2017-02-18T06:36:13Z</time>
            </trkpt>
            <trkpt lon="101.150487" lat="14.712511">
                <ele>295.799988</ele>
                <time>2017-02-18T06:36:15Z</time>
            </trkpt>
            <trkpt lon="101.150099" lat="14.712539">
                <ele>288.200012</ele>
                <time>2017-02-18T06:36:21Z</time>
            </trkpt>
            <trkpt lon="101.149929" lat="14.713023">
                <ele>290.400024</ele>
                <time>2017-02-18T06:36:53Z</time>
            </trkpt>
            <trkpt lon="101.149467" lat="14.713233">
                <ele>296.400024</ele>
                <time>2017-02-18T06:37:38Z</time>
            </trkpt>
            <trkpt lon="101.149453" lat="14.713226">
                <ele>296.400024</ele>
                <time>2017-02-18T06:38:21Z</time>
            </trkpt>
            <trkpt lon="101.149322" lat="14.713761">
                <ele>296.400024</ele>
                <time>2017-02-18T06:45:40Z</time>
            </trkpt>
            <trkpt lon="101.149441" lat="14.714379">
                <ele>300.799988</ele>
                <time>2017-02-18T06:46:04Z</time>
            </trkpt>
            <trkpt lon="101.149464" lat="14.714406">
                <ele>300.799988</ele>
                <time>2017-02-18T06:46:10Z</time>
            </trkpt>
            <trkpt lon="101.149488" lat="14.714381">
                <ele>302.799988</ele>
                <time>2017-02-18T06:46:22Z</time>
            </trkpt>
            <trkpt lon="101.149567" lat="14.714271">
                <ele>302.799988</ele>
                <time>2017-02-18T06:46:39Z</time>
            </trkpt>
            <trkpt lon="101.149575" lat="14.714201">
                <ele>302.799988</ele>
                <time>2017-02-18T06:46:50Z</time>
            </trkpt>
            <trkpt lon="101.149610" lat="14.714182">
                <ele>302.799988</ele>
                <time>2017-02-18T06:46:53Z</time>
            </trkpt>
            <trkpt lon="101.149641" lat="14.714165">
                <ele>302.799988</ele>
                <time>2017-02-18T06:46:55Z</time>
            </trkpt>
            <trkpt lon="101.149816" lat="14.714028">
                <ele>304.799988</ele>
                <time>2017-02-18T06:47:07Z</time>
            </trkpt>
            <trkpt lon="101.149967" lat="14.713938">
                <ele>304.799988</ele>
                <time>2017-02-18T06:47:15Z</time>
            </trkpt>
            <trkpt lon="101.150361" lat="14.713840">
                <ele>313.200012</ele>
                <time>2017-02-18T06:47:57Z</time>
            </trkpt>
            <trkpt lon="101.150400" lat="14.713712">
                <ele>313.200012</ele>
                <time>2017-02-18T06:48:04Z</time>
            </trkpt>
            <trkpt lon="101.150428" lat="14.713631">
                <ele>313.200012</ele>
                <time>2017-02-18T06:48:06Z</time>
            </trkpt>
            <trkpt lon="101.150758" lat="14.712998">
                <ele>308.799988</ele>
                <time>2017-02-18T06:55:47Z</time>
            </trkpt>
            <trkpt lon="101.150904" lat="14.712701">
                <ele>303.400024</ele>
                <time>2017-02-18T06:56:00Z</time>
            </trkpt>
            <trkpt lon="101.151266" lat="14.712560">
                <ele>314.799988</ele>
                <time>2017-02-18T06:58:02Z</time>
            </trkpt>
            <trkpt lon="101.151449" lat="14.712642">
                <ele>319.000000</ele>
                <time>2017-02-18T06:58:32Z</time>
            </trkpt>
            <trkpt lon="101.151722" lat="14.712666">
                <ele>319.000000</ele>
                <time>2017-02-18T06:59:01Z</time>
            </trkpt>
            <trkpt lon="101.151919" lat="14.712679">
                <ele>316.200012</ele>
                <time>2017-02-18T06:59:05Z</time>
            </trkpt>
            <trkpt lon="101.151982" lat="14.712658">
                <ele>314.400024</ele>
                <time>2017-02-18T06:59:07Z</time>
            </trkpt>
            <trkpt lon="101.151980" lat="14.712375">
                <ele>311.599976</ele>
                <time>2017-02-18T06:59:16Z</time>
            </trkpt>
            <trkpt lon="101.152392" lat="14.711904">
                <ele>308.799988</ele>
                <time>2017-02-18T06:59:31Z</time>
            </trkpt>
            <trkpt lon="101.152486" lat="14.711592">
                <ele>307.200012</ele>
                <time>2017-02-18T06:59:37Z</time>
            </trkpt>
            <trkpt lon="101.152927" lat="14.710991">
                <ele>307.200012</ele>
                <time>2017-02-18T06:59:52Z</time>
            </trkpt>
            <trkpt lon="101.153025" lat="14.710920">
                <ele>306.400024</ele>
                <time>2017-02-18T06:59:54Z</time>
            </trkpt>
            <trkpt lon="101.153165" lat="14.710763">
                <ele>305.200012</ele>
                <time>2017-02-18T06:59:57Z</time>
            </trkpt>
            <trkpt lon="101.153643" lat="14.710955">
                <ele>309.400024</ele>
                <time>2017-02-18T07:00:13Z</time>
            </trkpt>
            <trkpt lon="101.153821" lat="14.711122">
                <ele>309.400024</ele>
                <time>2017-02-18T07:00:18Z</time>
            </trkpt>
            <trkpt lon="101.154177" lat="14.711311">
                <ele>305.400024</ele>
                <time>2017-02-18T07:00:24Z</time>
            </trkpt>
            <trkpt lon="101.154347" lat="14.711281">
                <ele>303.599976</ele>
                <time>2017-02-18T07:00:26Z</time>
            </trkpt>
            <trkpt lon="101.155208" lat="14.710959">
                <ele>297.200012</ele>
                <time>2017-02-18T07:00:57Z</time>
            </trkpt>
            <trkpt lon="101.155045" lat="14.711467">
                <ele>294.599976</ele>
                <time>2017-02-18T07:01:24Z</time>
            </trkpt>
            <trkpt lon="101.155005" lat="14.711644">
                <ele>293.200012</ele>
                <time>2017-02-18T07:01:26Z</time>
            </trkpt>
            <trkpt lon="101.155513" lat="14.713018">
                <ele>292.000000</ele>
                <time>2017-02-18T07:01:54Z</time>
            </trkpt>
            <trkpt lon="101.156449" lat="14.714469">
                <ele>294.000000</ele>
                <time>2017-02-18T07:02:31Z</time>
            </trkpt>
            <trkpt lon="101.156531" lat="14.714430">
                <ele>296.000000</ele>
                <time>2017-02-18T07:02:41Z</time>
            </trkpt>
            <trkpt lon="101.156537" lat="14.714413">
                <ele>296.000000</ele>
                <time>2017-02-18T07:06:04Z</time>
            </trkpt>
            <trkpt lon="101.156539" lat="14.714415">
                <ele>296.000000</ele>
                <time>2017-02-18T07:06:44Z</time>
            </trkpt>
            <trkpt lon="101.156407" lat="14.714620">
                <ele>296.799988</ele>
                <time>2017-02-18T07:17:15Z</time>
            </trkpt>
            <trkpt lon="101.156337" lat="14.714653">
                <ele>298.000000</ele>
                <time>2017-02-18T07:17:18Z</time>
            </trkpt>
            <trkpt lon="101.156270" lat="14.714692">
                <ele>298.000000</ele>
                <time>2017-02-18T07:17:21Z</time>
            </trkpt>
            <trkpt lon="101.156229" lat="14.714763">
                <ele>298.000000</ele>
                <time>2017-02-18T07:17:24Z</time>
            </trkpt>
            <trkpt lon="101.156491" lat="14.715639">
                <ele>304.799988</ele>
                <time>2017-02-18T07:18:02Z</time>
            </trkpt>
            <trkpt lon="101.156491" lat="14.715843">
                <ele>304.799988</ele>
                <time>2017-02-18T07:18:12Z</time>
            </trkpt>
            <trkpt lon="101.156676" lat="14.715876">
                <ele>304.799988</ele>
                <time>2017-02-18T07:18:21Z</time>
            </trkpt>
            <trkpt lon="101.156718" lat="14.715871">
                <ele>304.799988</ele>
                <time>2017-02-18T07:18:23Z</time>
            </trkpt>
            <trkpt lon="101.156743" lat="14.715907">
                <ele>304.799988</ele>
                <time>2017-02-18T07:18:26Z</time>
            </trkpt>
            <trkpt lon="101.156667" lat="14.716241">
                <ele>304.799988</ele>
                <time>2017-02-18T07:18:41Z</time>
            </trkpt>
            <trkpt lon="101.156634" lat="14.716413">
                <ele>304.799988</ele>
                <time>2017-02-18T07:18:47Z</time>
            </trkpt>
            <trkpt lon="101.156500" lat="14.717129">
                <ele>309.000000</ele>
                <time>2017-02-18T07:19:34Z</time>
            </trkpt>
            <trkpt lon="101.156684" lat="14.717384">
                <ele>309.000000</ele>
                <time>2017-02-18T07:20:24Z</time>
            </trkpt>
            <trkpt lon="101.156591" lat="14.717887">
                <ele>313.000000</ele>
                <time>2017-02-18T07:20:54Z</time>
            </trkpt>
            <trkpt lon="101.156627" lat="14.718011">
                <ele>314.000000</ele>
                <time>2017-02-18T07:21:00Z</time>
            </trkpt>
            <trkpt lon="101.156550" lat="14.718239">
                <ele>315.400024</ele>
                <time>2017-02-18T07:21:15Z</time>
            </trkpt>
            <trkpt lon="101.157057" lat="14.719148">
                <ele>321.599976</ele>
                <time>2017-02-18T07:22:11Z</time>
            </trkpt>
            <trkpt lon="101.157566" lat="14.721316">
                <ele>339.200012</ele>
                <time>2017-02-18T07:24:14Z</time>
            </trkpt>
            <trkpt lon="101.157575" lat="14.721328">
                <ele>339.200012</ele>
                <time>2017-02-18T07:24:16Z</time>
            </trkpt>
            <trkpt lon="101.157578" lat="14.721325">
                <ele>339.200012</ele>
                <time>2017-02-18T07:24:18Z</time>
            </trkpt>
            <trkpt lon="101.157582" lat="14.721364">
                <ele>339.200012</ele>
                <time>2017-02-18T07:24:24Z</time>
            </trkpt>
            <trkpt lon="101.157763" lat="14.722009">
                <ele>347.400024</ele>
                <time>2017-02-18T07:25:48Z</time>
            </trkpt>
            <trkpt lon="101.157796" lat="14.722286">
                <ele>347.400024</ele>
                <time>2017-02-18T07:26:00Z</time>
            </trkpt>
            <trkpt lon="101.158038" lat="14.722541">
                <ele>352.000000</ele>
                <time>2017-02-18T07:26:20Z</time>
            </trkpt>
            <trkpt lon="101.158208" lat="14.722710">
                <ele>352.000000</ele>
                <time>2017-02-18T07:26:25Z</time>
            </trkpt>
            <trkpt lon="101.157990" lat="14.724922">
                <ele>346.200012</ele>
                <time>2017-02-18T07:26:58Z</time>
            </trkpt>
            <trkpt lon="101.157668" lat="14.725422">
                <ele>342.599976</ele>
                <time>2017-02-18T07:27:07Z</time>
            </trkpt>
            <trkpt lon="101.157567" lat="14.725470">
                <ele>342.599976</ele>
                <time>2017-02-18T07:27:09Z</time>
            </trkpt>
            <trkpt lon="101.157469" lat="14.725509">
                <ele>343.599976</ele>
                <time>2017-02-18T07:27:11Z</time>
            </trkpt>
            <trkpt lon="101.157328" lat="14.725561">
                <ele>345.000000</ele>
                <time>2017-02-18T07:27:14Z</time>
            </trkpt>
            <trkpt lon="101.157190" lat="14.725684">
                <ele>345.000000</ele>
                <time>2017-02-18T07:27:18Z</time>
            </trkpt>
            <trkpt lon="101.157272" lat="14.726119">
                <ele>343.599976</ele>
                <time>2017-02-18T07:27:26Z</time>
            </trkpt>
            <trkpt lon="101.157225" lat="14.726244">
                <ele>342.599976</ele>
                <time>2017-02-18T07:27:28Z</time>
            </trkpt>
            <trkpt lon="101.157180" lat="14.726442">
                <ele>342.599976</ele>
                <time>2017-02-18T07:27:31Z</time>
            </trkpt>
            <trkpt lon="101.157045" lat="14.727844">
                <ele>342.599976</ele>
                <time>2017-02-18T07:27:54Z</time>
            </trkpt>
            <trkpt lon="101.157048" lat="14.728066">
                <ele>342.599976</ele>
                <time>2017-02-18T07:27:57Z</time>
            </trkpt>
            <trkpt lon="101.157054" lat="14.728223">
                <ele>342.599976</ele>
                <time>2017-02-18T07:27:59Z</time>
            </trkpt>
            <trkpt lon="101.157020" lat="14.728374">
                <ele>341.799988</ele>
                <time>2017-02-18T07:28:01Z</time>
            </trkpt>
            <trkpt lon="101.156879" lat="14.728481">
                <ele>340.799988</ele>
                <time>2017-02-18T07:28:03Z</time>
            </trkpt>
            <trkpt lon="101.156689" lat="14.728526">
                <ele>339.599976</ele>
                <time>2017-02-18T07:28:05Z</time>
            </trkpt>
            <trkpt lon="101.156482" lat="14.728551">
                <ele>337.400024</ele>
                <time>2017-02-18T07:28:07Z</time>
            </trkpt>
            <trkpt lon="101.156262" lat="14.728550">
                <ele>335.799988</ele>
                <time>2017-02-18T07:28:09Z</time>
            </trkpt>
            <trkpt lon="101.155787" lat="14.728492">
                <ele>332.599976</ele>
                <time>2017-02-18T07:28:13Z</time>
            </trkpt>
            <trkpt lon="101.153865" lat="14.728674">
                <ele>333.200012</ele>
                <time>2017-02-18T07:28:42Z</time>
            </trkpt>
            <trkpt lon="101.153469" lat="14.729669">
                <ele>333.200012</ele>
                <time>2017-02-18T07:29:09Z</time>
            </trkpt>
            <trkpt lon="101.153392" lat="14.729623">
                <ele>333.200012</ele>
                <time>2017-02-18T07:29:33Z</time>
            </trkpt>
        </trkseg>
    </trk>
</gpx>